Terminal Aerodrome Forecast
Issued by NWS Memphis, TN

Home | Current Version | Previous Version | Text Only | Print | Product List | Glossary On
Versions: 1 2 3 4 5 6 7 8 9 10 11 12
000
FTUS44 KMEG 131100
TAFJBR
TAF
KJBR 131120Z 1312/1412 23004KT P6SM SCT250
     FM131500 23012KT P6SM FEW045
     FM140000 20004KT P6SM BKN250
     FM140800 22005KT P6SM VCTS BKN070CB BKN150
      TEMPO 1410/1412 5SM -TSRA OVC060CB=

USA.gov is the U.S. government's official web portal to all federal, state and local government web resources and services.